sensor_id;sensor_type;location;lat;lon;timestamp;P1;durP1;ratioP1;P2;durP2;ratioP2
38513;SDS011;24282;48.400;10.808;2023-04-03T00:01:28;5.43;;;3.93;;
38513;SDS011;24282;48.400;10.808;2023-04-03T00:03:54;7.47;;;4.07;;
38513;SDS011;24282;48.400;10.808;2023-04-03T00:06:20;5.77;;;3.27;;
38513;SDS011;24282;48.400;10.808;2023-04-03T00:08:47;3.93;;;3.17;;
38513;SDS011;24282;48.400;10.808;2023-04-03T00:11:13;5.17;;;3.47;;
38513;SDS011;24282;48.400;10.808;2023-04-03T00:13:39;4.97;;;3.70;;
38513;SDS011;24282;48.400;10.808;2023-04-03T00:16:05;3.97;;;2.93;;
38513;SDS011;24282;48.400;10.808;2023-04-03T00:18:32;4.37;;;3.10;;
38513;SDS011;24282;48.400;10.808;2023-04-03T00:20:57;5.50;;;3.50;;
38513;SDS011;24282;48.400;10.808;2023-04-03T00:23:23;3.60;;;2.80;;
38513;SDS011;24282;48.400;10.808;2023-04-03T00:25:49;5.53;;;3.20;;
38513;SDS011;24282;48.400;10.808;2023-04-03T00:28:16;4.20;;;2.87;;
38513;SDS011;24282;48.400;10.808;2023-04-03T00:30:42;4.50;;;3.00;;
38513;SDS011;24282;48.400;10.808;2023-04-03T00:33:08;3.80;;;2.90;;
38513;SDS011;24282;48.400;10.808;2023-04-03T00:35:39;5.03;;;2.93;;
38513;SDS011;24282;48.400;10.808;2023-04-03T00:38:05;4.67;;;3.10;;
38513;SDS011;24282;48.400;10.808;2023-04-03T00:40:36;4.37;;;2.57;;
38513;SDS011;24282;48.400;10.808;2023-04-03T00:43:21;6.47;;;3.07;;
38513;SDS011;24282;48.400;10.808;2023-04-03T00:45:49;3.67;;;2.80;;
38513;SDS011;24282;48.400;10.808;2023-04-03T00:48:21;3.17;;;2.27;;
38513;SDS011;24282;48.400;10.808;2023-04-03T00:50:48;4.20;;;3.00;;
38513;SDS011;24282;48.400;10.808;2023-04-03T00:53:16;3.63;;;2.97;;
38513;SDS011;24282;48.400;10.808;2023-04-03T00:55:47;3.83;;;2.93;;
38513;SDS011;24282;48.400;10.808;2023-04-03T00:58:15;5.03;;;2.90;;
38513;SDS011;24282;48.400;10.808;2023-04-03T01:00:43;4.13;;;2.97;;
38513;SDS011;24282;48.400;10.808;2023-04-03T01:03:13;4.20;;;3.17;;
38513;SDS011;24282;48.400;10.808;2023-04-03T01:05:39;4.13;;;2.73;;
38513;SDS011;24282;48.400;10.808;2023-04-03T01:08:06;4.23;;;2.80;;
38513;SDS011;24282;48.400;10.808;2023-04-03T01:10:32;3.20;;;2.20;;
38513;SDS011;24282;48.400;10.808;2023-04-03T01:12:58;6.20;;;3.10;;
38513;SDS011;24282;48.400;10.808;2023-04-03T01:15:26;3.63;;;2.80;;
38513;SDS011;24282;48.400;10.808;2023-04-03T01:17:54;4.13;;;2.57;;
38513;SDS011;24282;48.400;10.808;2023-04-03T01:25:36;7.97;;;2.83;;
38513;SDS011;24282;48.400;10.808;2023-04-03T01:28:03;3.80;;;2.40;;
38513;SDS011;24282;48.400;10.808;2023-04-03T01:30:31;4.07;;;2.40;;
38513;SDS011;24282;48.400;10.808;2023-04-03T01:32:59;3.70;;;2.43;;
38513;SDS011;24282;48.400;10.808;2023-04-03T01:35:25;3.63;;;2.27;;
38513;SDS011;24282;48.400;10.808;2023-04-03T01:37:51;4.57;;;2.87;;
38513;SDS011;24282;48.400;10.808;2023-04-03T01:40:17;3.17;;;2.20;;
38513;SDS011;24282;48.400;10.808;2023-04-03T01:42:44;4.00;;;2.73;;
38513;SDS011;24282;48.400;10.808;2023-04-03T01:45:11;3.13;;;2.30;;
38513;SDS011;24282;48.400;10.808;2023-04-03T01:47:36;3.23;;;2.50;;
38513;SDS011;24282;48.400;10.808;2023-04-03T01:50:02;4.43;;;2.37;;
38513;SDS011;24282;48.400;10.808;2023-04-03T01:52:31;3.87;;;2.40;;
38513;SDS011;24282;48.400;10.808;2023-04-03T01:54:57;3.97;;;2.40;;
38513;SDS011;24282;48.400;10.808;2023-04-03T01:57:22;3.40;;;2.50;;
38513;SDS011;24282;48.400;10.808;2023-04-03T01:59:48;3.30;;;2.17;;
38513;SDS011;24282;48.400;10.808;2023-04-03T02:02:14;3.73;;;2.60;;
38513;SDS011;24282;48.400;10.808;2023-04-03T02:04:40;3.57;;;2.30;;
38513;SDS011;24282;48.400;10.808;2023-04-03T02:07:06;3.57;;;2.13;;
38513;SDS011;24282;48.400;10.808;2023-04-03T02:09:32;3.50;;;2.23;;
38513;SDS011;24282;48.400;10.808;2023-04-03T02:11:57;4.23;;;2.40;;
38513;SDS011;24282;48.400;10.808;2023-04-03T02:14:23;3.17;;;2.30;;
38513;SDS011;24282;48.400;10.808;2023-04-03T02:16:49;4.20;;;2.10;;
38513;SDS011;24282;48.400;10.808;2023-04-03T02:19:15;4.33;;;2.97;;
38513;SDS011;24282;48.400;10.808;2023-04-03T02:21:41;4.17;;;2.33;;
38513;SDS011;24282;48.400;10.808;2023-04-03T02:24:07;4.67;;;2.43;;
38513;SDS011;24282;48.400;10.808;2023-04-03T02:26:33;3.37;;;2.47;;
38513;SDS011;24282;48.400;10.808;2023-04-03T02:28:59;4.00;;;2.17;;
38513;SDS011;24282;48.400;10.808;2023-04-03T02:31:24;5.37;;;2.50;;
38513;SDS011;24282;48.400;10.808;2023-04-03T02:33:51;3.47;;;2.10;;
38513;SDS011;24282;48.400;10.808;2023-04-03T02:36:17;3.50;;;2.63;;
38513;SDS011;24282;48.400;10.808;2023-04-03T02:38:49;4.07;;;2.07;;
38513;SDS011;24282;48.400;10.808;2023-04-03T02:41:15;3.57;;;2.13;;
38513;SDS011;24282;48.400;10.808;2023-04-03T02:43:41;3.77;;;2.43;;
38513;SDS011;24282;48.400;10.808;2023-04-03T02:46:07;3.77;;;2.37;;
38513;SDS011;24282;48.400;10.808;2023-04-03T02:48:34;3.73;;;2.40;;
38513;SDS011;24282;48.400;10.808;2023-04-03T02:51:00;3.00;;;2.30;;
38513;SDS011;24282;48.400;10.808;2023-04-03T02:53:26;4.23;;;2.20;;
38513;SDS011;24282;48.400;10.808;2023-04-03T02:55:52;3.70;;;2.60;;
38513;SDS011;24282;48.400;10.808;2023-04-03T02:58:18;3.17;;;2.27;;
38513;SDS011;24282;48.400;10.808;2023-04-03T03:00:44;4.67;;;2.70;;
38513;SDS011;24282;48.400;10.808;2023-04-03T03:03:10;3.17;;;2.33;;
38513;SDS011;24282;48.400;10.808;2023-04-03T03:05:35;4.67;;;2.50;;
38513;SDS011;24282;48.400;10.808;2023-04-03T03:08:01;3.77;;;2.40;;
38513;SDS011;24282;48.400;10.808;2023-04-03T03:10:27;4.63;;;2.77;;
38513;SDS011;24282;48.400;10.808;2023-04-03T03:12:52;3.77;;;2.30;;
38513;SDS011;24282;48.400;10.808;2023-04-03T03:15:18;3.47;;;2.37;;
38513;SDS011;24282;48.400;10.808;2023-04-03T03:17:44;3.73;;;2.20;;
38513;SDS011;24282;48.400;10.808;2023-04-03T03:20:10;4.60;;;2.57;;
38513;SDS011;24282;48.400;10.808;2023-04-03T03:22:37;3.80;;;2.43;;
38513;SDS011;24282;48.400;10.808;2023-04-03T03:25:03;5.03;;;2.63;;
38513;SDS011;24282;48.400;10.808;2023-04-03T03:27:29;3.27;;;2.30;;
38513;SDS011;24282;48.400;10.808;2023-04-03T03:29:55;2.60;;;2.00;;
38513;SDS011;24282;48.400;10.808;2023-04-03T03:32:21;3.90;;;2.77;;
38513;SDS011;24282;48.400;10.808;2023-04-03T03:34:47;4.27;;;2.50;;
38513;SDS011;24282;48.400;10.808;2023-04-03T03:37:12;3.97;;;2.27;;
38513;SDS011;24282;48.400;10.808;2023-04-03T03:39:38;4.90;;;2.50;;
38513;SDS011;24282;48.400;10.808;2023-04-03T03:42:04;3.03;;;2.30;;
38513;SDS011;24282;48.400;10.808;2023-04-03T03:44:30;4.60;;;2.60;;
38513;SDS011;24282;48.400;10.808;2023-04-03T03:46:56;3.47;;;2.13;;
38513;SDS011;24282;48.400;10.808;2023-04-03T03:49:22;5.20;;;2.83;;
38513;SDS011;24282;48.400;10.808;2023-04-03T03:51:48;5.93;;;2.60;;
38513;SDS011;24282;48.400;10.808;2023-04-03T03:54:14;4.10;;;2.33;;
38513;SDS011;24282;48.400;10.808;2023-04-03T03:56:39;3.77;;;2.70;;
38513;SDS011;24282;48.400;10.808;2023-04-03T03:59:06;4.03;;;2.70;;
38513;SDS011;24282;48.400;10.808;2023-04-03T04:01:32;5.47;;;2.73;;
38513;SDS011;24282;48.400;10.808;2023-04-03T04:03:58;3.83;;;2.50;;
38513;SDS011;24282;48.400;10.808;2023-04-03T04:06:28;4.87;;;2.80;;
38513;SDS011;24282;48.400;10.808;2023-04-03T04:08:57;4.50;;;2.57;;
38513;SDS011;24282;48.400;10.808;2023-04-03T04:11:23;3.40;;;2.43;;
38513;SDS011;24282;48.400;10.808;2023-04-03T04:13:53;4.67;;;2.67;;
38513;SDS011;24282;48.400;10.808;2023-04-03T04:16:22;3.53;;;2.80;;
38513;SDS011;24282;48.400;10.808;2023-04-03T04:18:48;4.23;;;2.73;;
38513;SDS011;24282;48.400;10.808;2023-04-03T04:21:14;5.40;;;2.50;;
38513;SDS011;24282;48.400;10.808;2023-04-03T04:23:41;3.83;;;2.37;;
38513;SDS011;24282;48.400;10.808;2023-04-03T04:26:07;4.70;;;2.40;;
38513;SDS011;24282;48.400;10.808;2023-04-03T04:28:35;5.70;;;2.93;;
38513;SDS011;24282;48.400;10.808;2023-04-03T04:31:02;4.53;;;2.50;;
38513;SDS011;24282;48.400;10.808;2023-04-03T04:33:28;4.80;;;2.80;;
38513;SDS011;24282;48.400;10.808;2023-04-03T04:35:57;4.60;;;2.70;;
38513;SDS011;24282;48.400;10.808;2023-04-03T04:38:23;6.90;;;2.87;;
38513;SDS011;24282;48.400;10.808;2023-04-03T04:40:51;3.60;;;2.50;;
38513;SDS011;24282;48.400;10.808;2023-04-03T04:43:16;3.87;;;2.23;;
38513;SDS011;24282;48.400;10.808;2023-04-03T04:45:45;5.10;;;2.60;;
38513;SDS011;24282;48.400;10.808;2023-04-03T04:48:11;3.93;;;2.97;;
38513;SDS011;24282;48.400;10.808;2023-04-03T04:50:36;4.10;;;2.70;;
38513;SDS011;24282;48.400;10.808;2023-04-03T04:53:02;3.00;;;2.40;;
38513;SDS011;24282;48.400;10.808;2023-04-03T04:55:29;6.47;;;3.17;;
38513;SDS011;24282;48.400;10.808;2023-04-03T04:57:55;4.27;;;2.83;;
38513;SDS011;24282;48.400;10.808;2023-04-03T05:00:21;5.47;;;2.70;;
38513;SDS011;24282;48.400;10.808;2023-04-03T05:02:47;3.10;;;2.33;;
38513;SDS011;24282;48.400;10.808;2023-04-03T05:05:13;3.23;;;2.47;;
38513;SDS011;24282;48.400;10.808;2023-04-03T05:07:39;3.17;;;2.30;;
38513;SDS011;24282;48.400;10.808;2023-04-03T05:10:06;3.87;;;2.63;;
38513;SDS011;24282;48.400;10.808;2023-04-03T05:12:33;3.50;;;2.43;;
38513;SDS011;24282;48.400;10.808;2023-04-03T05:15:01;3.97;;;2.70;;
38513;SDS011;24282;48.400;10.808;2023-04-03T05:17:29;3.87;;;2.30;;
38513;SDS011;24282;48.400;10.808;2023-04-03T05:19:56;5.03;;;2.80;;
38513;SDS011;24282;48.400;10.808;2023-04-03T05:22:23;4.27;;;2.77;;
38513;SDS011;24282;48.400;10.808;2023-04-03T05:24:51;4.17;;;2.80;;
38513;SDS011;24282;48.400;10.808;2023-04-03T05:27:18;4.10;;;2.70;;
38513;SDS011;24282;48.400;10.808;2023-04-03T05:29:49;3.57;;;2.70;;
38513;SDS011;24282;48.400;10.808;2023-04-03T05:32:19;4.50;;;2.97;;
38513;SDS011;24282;48.400;10.808;2023-04-03T05:34:49;4.23;;;2.73;;
38513;SDS011;24282;48.400;10.808;2023-04-03T05:37:18;4.60;;;2.87;;
38513;SDS011;24282;48.400;10.808;2023-04-03T05:39:44;5.73;;;2.90;;
38513;SDS011;24282;48.400;10.808;2023-04-03T05:42:11;3.73;;;2.60;;
38513;SDS011;24282;48.400;10.808;2023-04-03T05:44:37;4.23;;;2.80;;
38513;SDS011;24282;48.400;10.808;2023-04-03T05:47:03;4.47;;;2.97;;
38513;SDS011;24282;48.400;10.808;2023-04-03T05:49:29;4.47;;;2.60;;
38513;SDS011;24282;48.400;10.808;2023-04-03T05:51:56;5.73;;;2.97;;
38513;SDS011;24282;48.400;10.808;2023-04-03T05:54:25;4.73;;;2.90;;
38513;SDS011;24282;48.400;10.808;2023-04-03T05:57:02;5.13;;;2.90;;
38513;SDS011;24282;48.400;10.808;2023-04-03T05:59:28;5.83;;;3.03;;
38513;SDS011;24282;48.400;10.808;2023-04-03T06:01:56;4.47;;;2.50;;
38513;SDS011;24282;48.400;10.808;2023-04-03T06:04:23;4.10;;;3.00;;
38513;SDS011;24282;48.400;10.808;2023-04-03T06:06:50;4.33;;;2.70;;
38513;SDS011;24282;48.400;10.808;2023-04-03T06:09:20;4.27;;;3.03;;
38513;SDS011;24282;48.400;10.808;2023-04-03T06:11:47;3.67;;;2.93;;
38513;SDS011;24282;48.400;10.808;2023-04-03T06:14:13;4.37;;;2.87;;
38513;SDS011;24282;48.400;10.808;2023-04-03T06:16:39;5.63;;;3.20;;
38513;SDS011;24282;48.400;10.808;2023-04-03T06:19:09;3.93;;;2.80;;
38513;SDS011;24282;48.400;10.808;2023-04-03T06:21:40;4.47;;;3.13;;
38513;SDS011;24282;48.400;10.808;2023-04-03T06:24:07;5.10;;;3.27;;
38513;SDS011;24282;48.400;10.808;2023-04-03T06:26:33;8.00;;;3.10;;
38513;SDS011;24282;48.400;10.808;2023-04-03T06:28:59;5.07;;;3.30;;
38513;SDS011;24282;48.400;10.808;2023-04-03T06:31:27;4.47;;;3.20;;
38513;SDS011;24282;48.400;10.808;2023-04-03T06:33:53;5.23;;;2.70;;
38513;SDS011;24282;48.400;10.808;2023-04-03T06:36:19;4.53;;;3.17;;
38513;SDS011;24282;48.400;10.808;2023-04-03T06:38:46;6.23;;;4.07;;
38513;SDS011;24282;48.400;10.808;2023-04-03T06:41:12;6.30;;;2.90;;
38513;SDS011;24282;48.400;10.808;2023-04-03T06:43:38;5.10;;;3.23;;
38513;SDS011;24282;48.400;10.808;2023-04-03T06:46:04;4.10;;;3.20;;
38513;SDS011;24282;48.400;10.808;2023-04-03T06:48:30;4.93;;;2.70;;
38513;SDS011;24282;48.400;10.808;2023-04-03T06:50:56;7.13;;;3.27;;
38513;SDS011;24282;48.400;10.808;2023-04-03T06:53:21;5.07;;;3.57;;
38513;SDS011;24282;48.400;10.808;2023-04-03T06:55:47;4.10;;;3.03;;
38513;SDS011;24282;48.400;10.808;2023-04-03T06:58:13;5.93;;;3.37;;
38513;SDS011;24282;48.400;10.808;2023-04-03T07:00:40;5.50;;;3.03;;
38513;SDS011;24282;48.400;10.808;2023-04-03T07:03:06;4.07;;;2.77;;
38513;SDS011;24282;48.400;10.808;2023-04-03T07:05:32;4.53;;;2.90;;
38513;SDS011;24282;48.400;10.808;2023-04-03T07:07:57;5.43;;;3.00;;
38513;SDS011;24282;48.400;10.808;2023-04-03T07:10:23;5.97;;;3.20;;
38513;SDS011;24282;48.400;10.808;2023-04-03T07:12:49;4.63;;;3.20;;
38513;SDS011;24282;48.400;10.808;2023-04-03T07:15:14;8.80;;;3.33;;
38513;SDS011;24282;48.400;10.808;2023-04-03T07:17:40;5.27;;;3.37;;
38513;SDS011;24282;48.400;10.808;2023-04-03T07:20:06;7.73;;;3.13;;
38513;SDS011;24282;48.400;10.808;2023-04-03T07:22:33;4.20;;;3.07;;
38513;SDS011;24282;48.400;10.808;2023-04-03T07:24:59;4.13;;;3.13;;
38513;SDS011;24282;48.400;10.808;2023-04-03T07:27:25;4.10;;;3.17;;
38513;SDS011;24282;48.400;10.808;2023-04-03T07:29:51;6.53;;;3.80;;
38513;SDS011;24282;48.400;10.808;2023-04-03T07:32:17;4.53;;;3.20;;
38513;SDS011;24282;48.400;10.808;2023-04-03T07:34:43;4.73;;;3.13;;
38513;SDS011;24282;48.400;10.808;2023-04-03T07:37:09;5.57;;;3.50;;
38513;SDS011;24282;48.400;10.808;2023-04-03T07:39:35;4.33;;;2.93;;
38513;SDS011;24282;48.400;10.808;2023-04-03T07:42:01;4.20;;;3.30;;
38513;SDS011;24282;48.400;10.808;2023-04-03T07:44:28;5.23;;;3.17;;
38513;SDS011;24282;48.400;10.808;2023-04-03T07:46:54;5.50;;;2.87;;
38513;SDS011;24282;48.400;10.808;2023-04-03T07:49:22;4.67;;;2.43;;
38513;SDS011;24282;48.400;10.808;2023-04-03T07:51:49;4.63;;;3.10;;
38513;SDS011;24282;48.400;10.808;2023-04-03T07:54:15;6.40;;;3.43;;
38513;SDS011;24282;48.400;10.808;2023-04-03T07:56:41;5.73;;;3.23;;
38513;SDS011;24282;48.400;10.808;2023-04-03T07:59:08;3.77;;;2.63;;
38513;SDS011;24282;48.400;10.808;2023-04-03T08:01:34;4.33;;;2.87;;
38513;SDS011;24282;48.400;10.808;2023-04-03T08:04:00;6.00;;;3.03;;
38513;SDS011;24282;48.400;10.808;2023-04-03T08:06:26;6.23;;;3.00;;
38513;SDS011;24282;48.400;10.808;2023-04-03T08:08:54;4.90;;;2.90;;
38513;SDS011;24282;48.400;10.808;2023-04-03T08:11:20;4.37;;;2.60;;
38513;SDS011;24282;48.400;10.808;2023-04-03T08:13:46;5.77;;;3.10;;
38513;SDS011;24282;48.400;10.808;2023-04-03T08:16:13;5.63;;;2.90;;
38513;SDS011;24282;48.400;10.808;2023-04-03T08:18:42;3.87;;;2.73;;
38513;SDS011;24282;48.400;10.808;2023-04-03T08:21:09;4.70;;;2.87;;
38513;SDS011;24282;48.400;10.808;2023-04-03T08:23:36;4.53;;;2.70;;
38513;SDS011;24282;48.400;10.808;2023-04-03T08:26:06;6.80;;;2.80;;
38513;SDS011;24282;48.400;10.808;2023-04-03T08:28:36;4.83;;;3.30;;
38513;SDS011;24282;48.400;10.808;2023-04-03T08:31:03;6.00;;;3.10;;
38513;SDS011;24282;48.400;10.808;2023-04-03T08:33:36;5.60;;;2.63;;
38513;SDS011;24282;48.400;10.808;2023-04-03T08:36:04;4.50;;;3.07;;
38513;SDS011;24282;48.400;10.808;2023-04-03T08:38:31;5.70;;;2.77;;
38513;SDS011;24282;48.400;10.808;2023-04-03T08:41:11;5.27;;;2.93;;
38513;SDS011;24282;48.400;10.808;2023-04-03T08:49:54;5.47;;;3.10;;
38513;SDS011;24282;48.400;10.808;2023-04-03T08:52:37;4.53;;;3.10;;
38513;SDS011;24282;48.400;10.808;2023-04-03T08:55:28;6.43;;;2.80;;
38513;SDS011;24282;48.400;10.808;2023-04-03T08:58:01;4.33;;;3.07;;
38513;SDS011;24282;48.400;10.808;2023-04-03T09:00:43;6.67;;;3.60;;
38513;SDS011;24282;48.400;10.808;2023-04-03T09:03:14;5.40;;;3.00;;
38513;SDS011;24282;48.400;10.808;2023-04-03T09:08:47;5.30;;;3.33;;
38513;SDS011;24282;48.400;10.808;2023-04-03T09:11:23;3.83;;;2.37;;
38513;SDS011;24282;48.400;10.808;2023-04-03T09:13:54;5.40;;;3.07;;
38513;SDS011;24282;48.400;10.808;2023-04-03T09:16:48;6.27;;;3.53;;
38513;SDS011;24282;48.400;10.808;2023-04-03T09:22:13;5.07;;;3.10;;
38513;SDS011;24282;48.400;10.808;2023-04-03T09:25:11;5.17;;;2.73;;
38513;SDS011;24282;48.400;10.808;2023-04-03T09:27:52;4.33;;;2.57;;
38513;SDS011;24282;48.400;10.808;2023-04-03T09:30:22;4.87;;;2.83;;
38513;SDS011;24282;48.400;10.808;2023-04-03T09:32:51;7.17;;;3.03;;
38513;SDS011;24282;48.400;10.808;2023-04-03T09:35:20;4.33;;;2.53;;
38513;SDS011;24282;48.400;10.808;2023-04-03T09:37:51;5.10;;;2.80;;
38513;SDS011;24282;48.400;10.808;2023-04-03T09:42:51;6.13;;;2.97;;
38513;SDS011;24282;48.400;10.808;2023-04-03T09:45:34;4.90;;;2.37;;
38513;SDS011;24282;48.400;10.808;2023-04-03T09:48:06;5.10;;;2.87;;
38513;SDS011;24282;48.400;10.808;2023-04-03T09:50:37;4.97;;;2.40;;
38513;SDS011;24282;48.400;10.808;2023-04-03T09:53:40;5.30;;;2.97;;
38513;SDS011;24282;48.400;10.808;2023-04-03T09:58:42;4.70;;;3.03;;
38513;SDS011;24282;48.400;10.808;2023-04-03T10:01:28;5.30;;;2.90;;
38513;SDS011;24282;48.400;10.808;2023-04-03T10:04:05;4.93;;;3.17;;
38513;SDS011;24282;48.400;10.808;2023-04-03T10:06:40;4.97;;;2.77;;
38513;SDS011;24282;48.400;10.808;2023-04-03T10:09:16;6.53;;;3.33;;
38513;SDS011;24282;48.400;10.808;2023-04-03T10:14:54;5.57;;;3.10;;
38513;SDS011;24282;48.400;10.808;2023-04-03T10:20:26;2.73;;;2.00;;
38513;SDS011;24282;48.400;10.808;2023-04-03T10:27:55;3.97;;;2.60;;
38513;SDS011;24282;48.400;10.808;2023-04-03T10:46:52;5.60;;;2.93;;
38513;SDS011;24282;48.400;10.808;2023-04-03T10:52:13;3.97;;;2.77;;
38513;SDS011;24282;48.400;10.808;2023-04-03T10:57:38;5.20;;;2.47;;
38513;SDS011;24282;48.400;10.808;2023-04-03T11:00:06;3.33;;;2.10;;
38513;SDS011;24282;48.400;10.808;2023-04-03T11:02:45;4.17;;;2.53;;
38513;SDS011;24282;48.400;10.808;2023-04-03T11:05:42;4.33;;;2.37;;
38513;SDS011;24282;48.400;10.808;2023-04-03T11:08:12;4.43;;;2.37;;
38513;SDS011;24282;48.400;10.808;2023-04-03T11:10:59;4.90;;;2.60;;
38513;SDS011;24282;48.400;10.808;2023-04-03T11:13:38;3.53;;;2.30;;
38513;SDS011;24282;48.400;10.808;2023-04-03T11:16:09;4.03;;;2.53;;
38513;SDS011;24282;48.400;10.808;2023-04-03T11:18:46;6.13;;;3.03;;
38513;SDS011;24282;48.400;10.808;2023-04-03T11:22:00;4.27;;;2.90;;
38513;SDS011;24282;48.400;10.808;2023-04-03T11:24:17;4.78;;;2.35;;
38513;SDS011;24282;48.400;10.808;2023-04-03T11:26:49;4.33;;;2.50;;
38513;SDS011;24282;48.400;10.808;2023-04-03T11:29:36;3.70;;;2.33;;
38513;SDS011;24282;48.400;10.808;2023-04-03T11:34:56;6.50;;;2.47;;
38513;SDS011;24282;48.400;10.808;2023-04-03T11:37:40;5.53;;;2.63;;
38513;SDS011;24282;48.400;10.808;2023-04-03T11:42:46;4.60;;;2.70;;
38513;SDS011;24282;48.400;10.808;2023-04-03T11:55:57;4.13;;;2.33;;
38513;SDS011;24282;48.400;10.808;2023-04-03T12:05:56;3.47;;;2.00;;
38513;SDS011;24282;48.400;10.808;2023-04-03T12:13:39;4.43;;;2.00;;
38513;SDS011;24282;48.400;10.808;2023-04-03T12:16:20;3.87;;;1.93;;
38513;SDS011;24282;48.400;10.808;2023-04-03T12:29:46;3.73;;;1.93;;
38513;SDS011;24282;48.400;10.808;2023-04-03T12:48:38;2.73;;;1.60;;
38513;SDS011;24282;48.400;10.808;2023-04-03T12:51:05;2.67;;;1.73;;
38513;SDS011;24282;48.400;10.808;2023-04-03T12:53:32;4.33;;;1.93;;
38513;SDS011;24282;48.400;10.808;2023-04-03T12:58:50;3.27;;;1.87;;
38513;SDS011;24282;48.400;10.808;2023-04-03T13:01:19;3.70;;;1.70;;
38513;SDS011;24282;48.400;10.808;2023-04-03T13:03:49;2.97;;;1.57;;
38513;SDS011;24282;48.400;10.808;2023-04-03T13:08:51;2.90;;;1.80;;
38513;SDS011;24282;48.400;10.808;2023-04-03T13:11:19;2.30;;;1.50;;
38513;SDS011;24282;48.400;10.808;2023-04-03T13:13:59;3.80;;;1.57;;
38513;SDS011;24282;48.400;10.808;2023-04-03T13:16:27;3.20;;;1.60;;
38513;SDS011;24282;48.400;10.808;2023-04-03T13:18:53;3.17;;;1.30;;
38513;SDS011;24282;48.400;10.808;2023-04-03T13:21:26;2.93;;;1.53;;
38513;SDS011;24282;48.400;10.808;2023-04-03T13:23:55;3.30;;;1.63;;
38513;SDS011;24282;48.400;10.808;2023-04-03T13:26:24;3.90;;;1.80;;
38513;SDS011;24282;48.400;10.808;2023-04-03T13:28:52;3.73;;;1.73;;
38513;SDS011;24282;48.400;10.808;2023-04-03T13:33:58;3.70;;;1.67;;
38513;SDS011;24282;48.400;10.808;2023-04-03T13:41:46;3.07;;;1.60;;
38513;SDS011;24282;48.400;10.808;2023-04-03T13:46:48;3.20;;;1.60;;
38513;SDS011;24282;48.400;10.808;2023-04-03T13:54:53;2.53;;;1.50;;
38513;SDS011;24282;48.400;10.808;2023-04-03T13:57:21;3.97;;;2.07;;
38513;SDS011;24282;48.400;10.808;2023-04-03T13:59:47;3.10;;;1.20;;
38513;SDS011;24282;48.400;10.808;2023-04-03T14:02:21;3.10;;;1.50;;
38513;SDS011;24282;48.400;10.808;2023-04-03T14:04:54;3.33;;;1.57;;
38513;SDS011;24282;48.400;10.808;2023-04-03T14:07:25;2.77;;;1.47;;
38513;SDS011;24282;48.400;10.808;2023-04-03T14:09:51;2.43;;;1.37;;
38513;SDS011;24282;48.400;10.808;2023-04-03T14:12:19;3.67;;;1.33;;
38513;SDS011;24282;48.400;10.808;2023-04-03T14:14:56;3.30;;;1.50;;
38513;SDS011;24282;48.400;10.808;2023-04-03T14:17:23;2.53;;;1.50;;
38513;SDS011;24282;48.400;10.808;2023-04-03T14:19:50;4.23;;;1.67;;
38513;SDS011;24282;48.400;10.808;2023-04-03T14:22:18;2.77;;;1.50;;
38513;SDS011;24282;48.400;10.808;2023-04-03T14:24:47;4.47;;;1.67;;
38513;SDS011;24282;48.400;10.808;2023-04-03T14:27:22;2.60;;;1.53;;
38513;SDS011;24282;48.400;10.808;2023-04-03T14:29:52;2.97;;;1.30;;
38513;SDS011;24282;48.400;10.808;2023-04-03T14:32:20;4.13;;;1.60;;
38513;SDS011;24282;48.400;10.808;2023-04-03T14:34:48;2.67;;;1.10;;
38513;SDS011;24282;48.400;10.808;2023-04-03T14:37:15;3.17;;;1.47;;
38513;SDS011;24282;48.400;10.808;2023-04-03T14:39:43;3.23;;;1.40;;
38513;SDS011;24282;48.400;10.808;2023-04-03T14:42:14;2.40;;;1.17;;
38513;SDS011;24282;48.400;10.808;2023-04-03T14:44:42;2.65;;;1.23;;
38513;SDS011;24282;48.400;10.808;2023-04-03T14:47:10;3.60;;;1.10;;
38513;SDS011;24282;48.400;10.808;2023-04-03T14:49:37;2.77;;;1.10;;
38513;SDS011;24282;48.400;10.808;2023-04-03T14:52:03;3.07;;;1.30;;
38513;SDS011;24282;48.400;10.808;2023-04-03T14:54:29;3.47;;;1.30;;
38513;SDS011;24282;48.400;10.808;2023-04-03T14:56:56;4.47;;;1.50;;
38513;SDS011;24282;48.400;10.808;2023-04-03T14:59:24;3.57;;;1.67;;
38513;SDS011;24282;48.400;10.808;2023-04-03T15:01:50;2.50;;;1.30;;
38513;SDS011;24282;48.400;10.808;2023-04-03T15:04:18;3.33;;;1.33;;
38513;SDS011;24282;48.400;10.808;2023-04-03T15:06:45;2.73;;;1.40;;
38513;SDS011;24282;48.400;10.808;2023-04-03T15:11:51;2.57;;;1.20;;
38513;SDS011;24282;48.400;10.808;2023-04-03T15:14:18;3.33;;;1.03;;
38513;SDS011;24282;48.400;10.808;2023-04-03T15:16:44;3.10;;;1.37;;
38513;SDS011;24282;48.400;10.808;2023-04-03T15:19:10;2.77;;;1.40;;
38513;SDS011;24282;48.400;10.808;2023-04-03T15:21:37;2.70;;;1.10;;
38513;SDS011;24282;48.400;10.808;2023-04-03T15:24:03;3.50;;;1.30;;
38513;SDS011;24282;48.400;10.808;2023-04-03T15:26:29;3.60;;;1.20;;
38513;SDS011;24282;48.400;10.808;2023-04-03T15:28:56;3.40;;;1.40;;
38513;SDS011;24282;48.400;10.808;2023-04-03T15:31:22;1.87;;;1.07;;
38513;SDS011;24282;48.400;10.808;2023-04-03T15:33:48;2.63;;;1.20;;
38513;SDS011;24282;48.400;10.808;2023-04-03T15:36:13;3.47;;;1.10;;
38513;SDS011;24282;48.400;10.808;2023-04-03T15:38:39;1.97;;;1.10;;
38513;SDS011;24282;48.400;10.808;2023-04-03T15:41:05;2.03;;;1.00;;
38513;SDS011;24282;48.400;10.808;2023-04-03T15:43:31;3.57;;;1.97;;
38513;SDS011;24282;48.400;10.808;2023-04-03T15:45:58;4.47;;;1.10;;
38513;SDS011;24282;48.400;10.808;2023-04-03T15:48:26;3.63;;;1.37;;
38513;SDS011;24282;48.400;10.808;2023-04-03T15:50:53;2.33;;;1.13;;
38513;SDS011;24282;48.400;10.808;2023-04-03T15:53:19;1.63;;;1.07;;
38513;SDS011;24282;48.400;10.808;2023-04-03T15:55:44;2.93;;;1.00;;
38513;SDS011;24282;48.400;10.808;2023-04-03T15:58:10;4.00;;;1.70;;
38513;SDS011;24282;48.400;10.808;2023-04-03T16:00:36;1.87;;;1.03;;
38513;SDS011;24282;48.400;10.808;2023-04-03T16:03:07;2.17;;;0.77;;
38513;SDS011;24282;48.400;10.808;2023-04-03T16:05:36;1.80;;;1.10;;
38513;SDS011;24282;48.400;10.808;2023-04-03T16:08:03;2.70;;;1.10;;
38513;SDS011;24282;48.400;10.808;2023-04-03T16:10:30;2.40;;;1.00;;
38513;SDS011;24282;48.400;10.808;2023-04-03T16:12:56;3.00;;;1.17;;
38513;SDS011;24282;48.400;10.808;2023-04-03T16:15:21;2.00;;;0.80;;
38513;SDS011;24282;48.400;10.808;2023-04-03T16:17:49;2.57;;;0.93;;
38513;SDS011;24282;48.400;10.808;2023-04-03T16:20:15;3.80;;;1.17;;
38513;SDS011;24282;48.400;10.808;2023-04-03T16:22:41;1.90;;;1.00;;
38513;SDS011;24282;48.400;10.808;2023-04-03T16:25:08;2.80;;;1.40;;
38513;SDS011;24282;48.400;10.808;2023-04-03T16:27:35;3.67;;;1.43;;
38513;SDS011;24282;48.400;10.808;2023-04-03T16:30:01;3.30;;;1.10;;
38513;SDS011;24282;48.400;10.808;2023-04-03T16:32:27;2.10;;;1.10;;
38513;SDS011;24282;48.400;10.808;2023-04-03T16:34:55;2.40;;;1.20;;
38513;SDS011;24282;48.400;10.808;2023-04-03T16:37:21;3.63;;;1.20;;
38513;SDS011;24282;48.400;10.808;2023-04-03T16:39:47;2.93;;;1.23;;
38513;SDS011;24282;48.400;10.808;2023-04-03T16:42:13;2.70;;;1.30;;
38513;SDS011;24282;48.400;10.808;2023-04-03T16:44:38;3.23;;;1.30;;
38513;SDS011;24282;48.400;10.808;2023-04-03T16:47:05;2.87;;;1.00;;
38513;SDS011;24282;48.400;10.808;2023-04-03T16:49:33;4.33;;;1.80;;
38513;SDS011;24282;48.400;10.808;2023-04-03T16:52:00;2.10;;;1.17;;
38513;SDS011;24282;48.400;10.808;2023-04-03T16:54:27;1.77;;;1.17;;
38513;SDS011;24282;48.400;10.808;2023-04-03T16:56:53;2.40;;;1.10;;